Time;durP1;ratioP1;P1;durP2;ratioP2;P2;SDS_P1;SDS_P2;PMS_P1;PMS_P2;Temp;Humidity;BMP_temperature;BMP_pressure;BME280_temperature;BME280_humidity;BME280_pressure;Samples;Min_cycle;Max_cycle;Signal;HPM_P1;HPM_P2
2023/06/18 00:00:33;;;;;;;;;;;;;;;12.53;76.24;99948.05;129478;1298;22661;-79
2023/06/18 00:03:34;;;;;;;;;;;;;;;12.53;76.29;99947.69;129427;1295;22551;-79
2023/06/18 00:06:34;;;;;;;;;;;;;;;12.54;76.59;99952.10;129461;1295;22789;-80
2023/06/18 00:09:35;;;;;;;;;;;;;;;12.55;76.75;99950.67;129450;1295;25309;-77
2023/06/18 00:12:35;;;;;;;;;;;;;;;12.56;76.84;99951.61;129434;1293;22588;-79
2023/06/18 00:15:36;;;;;;;;;;;;;;;12.58;77.01;99951.98;129637;1298;22548;-80
2023/06/18 00:18:36;;;;;;;;;;;;;;;12.59;76.97;99953.94;129523;1293;22534;-80
2023/06/18 00:21:37;;;;;;;;;;;;;;;12.62;77.42;99953.04;129634;1295;22795;-82
2023/06/18 00:24:39;;;;;;;;;;;;;;;12.66;77.45;99953.13;129655;1293;22556;-79
2023/06/18 00:27:40;;;;;;;;;;;;;;;12.65;77.50;99948.58;129502;1293;24310;-78
2023/06/18 00:30:41;;;;;;;;;;;;;;;12.67;77.63;99953.91;129513;1292;26608;-83
2023/06/18 00:33:41;;;;;;;;;;;;;;;12.69;77.88;99952.48;129634;1292;24091;-82
2023/06/18 00:36:43;;;;;;;;;;;;;;;12.71;78.00;99955.00;129432;1295;22560;-80
2023/06/18 00:39:44;;;;;;;;;;;;;;;12.74;78.21;99949.84;129495;1295;24231;-80
2023/06/18 00:42:44;;;;;;;;;;;;;;;12.76;78.30;99952.77;129464;1293;23877;-79
2023/06/18 00:45:46;;;;;;;;;;;;;;;12.79;78.42;99953.54;129507;1286;22563;-80
2023/06/18 00:48:47;;;;;;;;;;;;;;;12.81;78.42;99955.76;129534;1295;25364;-80
2023/06/18 00:51:48;;;;;;;;;;;;;;;12.82;78.55;99962.55;129500;1292;22551;-80
2023/06/18 00:54:50;;;;;;;;;;;;;;;12.82;78.64;99962.27;129483;1292;22946;-81
2023/06/18 00:57:59;;;;;;;;;;;;;;;12.82;78.65;99961.37;129467;1301;22800;-80
2023/06/18 01:01:00;;;;;;;;;;;;;;;12.80;78.53;99960.45;129499;1302;23013;-78
2023/06/18 01:04:00;;;;;;;;;;;;;;;12.79;78.67;99956.50;129557;1295;22654;-79
2023/06/18 01:07:01;;;;;;;;;;;;;;;12.81;78.68;99957.88;129622;1296;23531;-81
2023/06/18 01:10:03;;;;;;;;;;;;;;;12.81;78.81;99954.33;129565;1292;23954;-78
2023/06/18 01:13:03;;;;;;;;;;;;;;;12.85;79.28;99948.91;129522;1293;22547;-78
2023/06/18 01:16:05;;;;;;;;;;;;;;;12.89;79.45;99950.55;129549;1295;22645;-81
2023/06/18 01:19:10;;;;;;;;;;;;;;;12.89;79.52;99953.31;129564;1295;22553;-81
2023/06/18 01:22:19;;;;;;;;;;;;;;;12.92;79.70;99953.91;129445;1292;22530;-79
2023/06/18 01:25:20;;;;;;;;;;;;;;;12.93;79.88;99953.44;129509;1293;22543;-79
2023/06/18 01:28:22;;;;;;;;;;;;;;;12.96;80.11;99942.98;129729;1298;22661;-78
2023/06/18 01:31:23;;;;;;;;;;;;;;;12.98;80.20;99947.15;129564;1295;22570;-79
2023/06/18 01:34:24;;;;;;;;;;;;;;;12.97;80.30;99948.16;129582;1301;25377;-79
2023/06/18 01:37:39;;;;;;;;;;;;;;;12.98;80.44;99948.38;129580;1301;25329;-77
2023/06/18 01:40:46;;;;;;;;;;;;;;;12.98;80.34;99955.27;129570;1299;25386;-76
2023/06/18 01:43:47;;;;;;;;;;;;;;;12.96;80.38;99955.92;129413;1292;22981;-82
2023/06/18 01:46:48;;;;;;;;;;;;;;;12.93;80.44;99959.23;129504;1292;22797;-80
2023/06/18 01:49:49;;;;;;;;;;;;;;;12.92;80.33;99961.16;129487;1301;23882;-84
2023/06/18 01:52:50;;;;;;;;;;;;;;;12.90;80.47;99961.80;129677;1293;22545;-80
2023/06/18 01:55:52;;;;;;;;;;;;;;;12.88;80.44;99964.31;129502;1296;22541;-78
2023/06/18 01:58:52;;;;;;;;;;;;;;;12.86;80.45;99967.93;129241;1295;22535;-77
2023/06/18 02:01:53;;;;;;;;;;;;;;;12.87;80.50;99975.48;129501;1298;22656;-79
2023/06/18 02:04:54;;;;;;;;;;;;;;;12.89;80.73;99974.39;129535;1292;22535;-78
2023/06/18 02:07:54;;;;;;;;;;;;;;;12.91;80.85;99972.14;129520;1292;25566;-79
2023/06/18 02:10:55;;;;;;;;;;;;;;;12.92;80.83;99977.83;129615;1295;24314;-81
2023/06/18 02:13:55;;;;;;;;;;;;;;;12.92;80.90;99979.11;129195;1298;25457;-80
2023/06/18 02:16:57;;;;;;;;;;;;;;;12.93;81.12;99979.13;129484;1294;23869;-80
2023/06/18 02:19:59;;;;;;;;;;;;;;;12.94;81.12;99974.83;129390;1295;23081;-79
2023/06/18 02:22:59;;;;;;;;;;;;;;;12.89;81.06;99977.48;129564;1292;23178;-80
2023/06/18 02:26:00;;;;;;;;;;;;;;;12.81;81.03;99978.48;129577;1292;24683;-79
2023/06/18 02:29:00;;;;;;;;;;;;;;;12.76;81.19;99980.42;129636;1298;22649;-80
2023/06/18 02:32:01;;;;;;;;;;;;;;;12.75;81.26;99980.08;129487;1292;22538;-79
2023/06/18 02:35:01;;;;;;;;;;;;;;;12.76;81.44;99980.47;129495;1292;25398;-78
2023/06/18 02:38:02;;;;;;;;;;;;;;;12.76;81.32;99984.86;129222;1295;23141;-78
2023/06/18 02:41:03;;;;;;;;;;;;;;;12.75;81.38;99983.79;129644;1301;22781;-82
2023/06/18 02:44:04;;;;;;;;;;;;;;;12.76;81.42;99984.35;129383;1292;22539;-81
2023/06/18 02:47:05;;;;;;;;;;;;;;;12.78;81.66;99985.16;129422;1292;25414;-79
2023/06/18 02:50:06;;;;;;;;;;;;;;;12.81;81.80;99987.73;129474;1296;22547;-79
2023/06/18 02:53:06;;;;;;;;;;;;;;;12.83;81.74;99990.17;129541;1295;24573;-80
2023/06/18 02:56:07;;;;;;;;;;;;;;;12.83;81.80;99992.92;129299;1295;22595;-83
2023/06/18 02:59:07;;;;;;;;;;;;;;;12.84;81.91;99998.74;129528;1295;24240;-79
2023/06/18 03:02:08;;;;;;;;;;;;;;;12.85;82.01;99998.44;129232;1296;22531;-79
2023/06/18 03:05:09;;;;;;;;;;;;;;;12.86;82.15;99996.77;129518;1292;22612;-80
2023/06/18 03:08:10;;;;;;;;;;;;;;;12.85;82.21;99995.16;129508;1295;25763;-80
2023/06/18 03:11:15;;;;;;;;;;;;;;;12.85;82.07;99992.91;129502;1298;22789;-78
2023/06/18 03:14:16;;;;;;;;;;;;;;;12.85;82.17;99994.38;129356;1295;22540;-78
2023/06/18 03:17:17;;;;;;;;;;;;;;;12.86;82.13;100000.99;129773;1295;22952;-79
2023/06/18 03:20:19;;;;;;;;;;;;;;;12.86;82.23;100003.21;129552;1292;22790;-80
2023/06/18 03:23:22;;;;;;;;;;;;;;;12.87;82.20;100005.08;129531;1295;23644;-80
2023/06/18 03:26:23;;;;;;;;;;;;;;;12.88;82.23;100006.73;129590;1296;22699;-79
2023/06/18 03:29:30;;;;;;;;;;;;;;;12.89;82.38;100003.94;129624;1295;25513;-80
2023/06/18 03:32:31;;;;;;;;;;;;;;;12.89;82.47;100005.08;129500;1297;22787;-79
2023/06/18 03:35:33;;;;;;;;;;;;;;;12.90;82.65;100011.13;129571;1289;22531;-81
2023/06/18 03:38:34;;;;;;;;;;;;;;;12.91;82.80;100012.57;129321;1292;22563;-78
2023/06/18 03:41:37;;;;;;;;;;;;;;;12.93;82.96;100020.55;129528;1295;22658;-78
2023/06/18 03:44:37;;;;;;;;;;;;;;;12.95;83.00;100024.99;129256;1292;22569;-81
2023/06/18 03:47:38;;;;;;;;;;;;;;;13.00;83.16;100023.85;129345;1298;24324;-79
2023/06/18 03:50:40;;;;;;;;;;;;;;;13.06;83.30;100025.55;129522;1295;22809;-79
2023/06/18 03:53:40;;;;;;;;;;;;;;;13.10;83.36;100020.77;129510;1301;25485;-79
2023/06/18 03:56:41;;;;;;;;;;;;;;;13.15;83.33;100025.14;129374;1293;23920;-79
2023/06/18 03:59:42;;;;;;;;;;;;;;;13.17;83.44;100023.69;129513;1295;22794;-81
2023/06/18 04:02:42;;;;;;;;;;;;;;;13.21;83.56;100024.55;129581;1295;22764;-79
2023/06/18 04:05:45;;;;;;;;;;;;;;;13.23;83.51;100026.80;129500;1301;22796;-81
2023/06/18 04:08:46;;;;;;;;;;;;;;;13.25;83.50;100024.28;129505;1299;25005;-80
2023/06/18 04:11:48;;;;;;;;;;;;;;;13.27;83.67;100023.88;129220;1293;22667;-80
2023/06/18 04:14:48;;;;;;;;;;;;;;;13.30;83.73;100017.73;129435;1294;25613;-81
2023/06/18 04:17:49;;;;;;;;;;;;;;;13.31;83.67;100018.40;129330;1301;25350;-80
2023/06/18 04:20:49;;;;;;;;;;;;;;;13.33;83.73;100012.38;129618;1293;25334;-81
2023/06/18 04:23:50;;;;;;;;;;;;;;;13.37;83.85;100014.69;129633;1292;22807;-80
2023/06/18 04:26:50;;;;;;;;;;;;;;;13.37;83.77;100010.42;129674;1295;22629;-79
2023/06/18 04:29:51;;;;;;;;;;;;;;;13.38;83.84;100011.91;129596;1297;22683;-79
2023/06/18 04:32:52;;;;;;;;;;;;;;;13.38;83.92;100012.54;129518;1298;22546;-80
2023/06/18 04:35:53;;;;;;;;;;;;;;;13.40;83.96;100013.79;129286;1298;22620;-80
2023/06/18 04:38:53;;;;;;;;;;;;;;;13.41;83.87;100023.27;129504;1293;24241;-80
2023/06/18 04:41:54;;;;;;;;;;;;;;;13.44;83.99;100027.85;129364;1292;22680;-80
2023/06/18 04:44:55;;;;;;;;;;;;;;;13.46;83.97;100031.52;129297;1298;24039;-78
2023/06/18 04:47:57;;;;;;;;;;;;;;;13.55;84.16;100032.81;129573;1301;22559;-81
2023/06/18 04:50:58;;;;;;;;;;;;;;;13.66;84.20;100034.54;129480;1292;24417;-79
2023/06/18 04:53:59;;;;;;;;;;;;;;;13.80;83.99;100031.81;129637;1295;22747;-79
2023/06/18 04:56:59;;;;;;;;;;;;;;;13.89;83.73;100038.67;129300;1295;25996;-82
2023/06/18 05:00:04;;;;;;;;;;;;;;;13.95;83.60;100035.77;129647;1295;22952;-80
2023/06/18 05:03:06;;;;;;;;;;;;;;;14.05;83.50;100038.78;129497;1298;22533;-79
2023/06/18 05:06:06;;;;;;;;;;;;;;;14.14;83.31;100039.52;129487;1292;22554;-82
2023/06/18 05:09:08;;;;;;;;;;;;;;;14.22;83.23;100043.98;129603;1295;22555;-81
2023/06/18 05:12:09;;;;;;;;;;;;;;;14.28;82.99;100044.98;129527;1295;23319;-83
2023/06/18 05:15:10;;;;;;;;;;;;;;;14.36;82.90;100046.73;129530;1285;22533;-81
2023/06/18 05:18:11;;;;;;;;;;;;;;;14.51;82.88;100047.17;129508;1295;23770;-81
2023/06/18 05:21:12;;;;;;;;;;;;;;;14.71;82.80;100052.55;129598;1300;22560;-80
2023/06/18 05:24:13;;;;;;;;;;;;;;;15.00;82.57;100060.86;129729;1289;22530;-80
2023/06/18 05:27:14;;;;;;;;;;;;;;;15.30;82.28;100060.20;129684;1292;22651;-82
2023/06/18 05:30:15;;;;;;;;;;;;;;;15.66;82.26;100064.30;129517;1298;22659;-81
2023/06/18 05:33:16;;;;;;;;;;;;;;;16.23;81.73;100065.30;129530;1293;25369;-77
2023/06/18 05:36:18;;;;;;;;;;;;;;;16.46;80.57;100066.83;129592;1295;22616;-79
2023/06/18 05:39:19;;;;;;;;;;;;;;;16.79;80.01;100071.40;129323;1298;25378;-80
2023/06/18 05:42:20;;;;;;;;;;;;;;;17.23;79.70;100070.27;129473;1295;22781;-79
2023/06/18 05:45:20;;;;;;;;;;;;;;;17.78;78.99;100069.71;129466;1301;144452;-80
2023/06/18 05:48:21;;;;;;;;;;;;;;;18.30;78.24;100068.77;129502;1294;22541;-80
2023/06/18 05:51:28;;;;;;;;;;;;;;;18.53;76.82;100071.80;129529;1292;22788;-81
2023/06/18 05:54:29;;;;;;;;;;;;;;;18.64;76.06;100071.25;129802;1301;22783;-81
2023/06/18 05:57:30;;;;;;;;;;;;;;;19.04;75.72;100070.22;129800;1296;22655;-82
2023/06/18 06:00:31;;;;;;;;;;;;;;;19.44;75.15;100069.02;129933;1295;22644;-82
2023/06/18 06:03:35;;;;;;;;;;;;;;;19.99;74.43;100069.62;129768;1293;25122;-79
2023/06/18 06:06:36;;;;;;;;;;;;;;;20.58;73.57;100068.92;129547;1297;22577;-79
2023/06/18 06:09:37;;;;;;;;;;;;;;;20.84;72.33;100071.92;129942;1290;23872;-82
2023/06/18 06:12:37;;;;;;;;;;;;;;;20.76;71.31;100075.30;129674;1292;25510;-79
2023/06/18 06:15:39;;;;;;;;;;;;;;;20.50;70.80;100082.98;129865;1292;22820;-81
2023/06/18 06:18:39;;;;;;;;;;;;;;;20.31;70.80;100085.64;129869;1295;24362;-78
2023/06/18 06:21:39;;;;;;;;;;;;;;;20.13;70.57;100085.91;129708;1295;22658;-82
2023/06/18 06:24:42;;;;;;;;;;;;;;;19.96;70.66;100092.21;129643;1298;22530;-80
2023/06/18 06:27:43;;;;;;;;;;;;;;;19.93;70.86;100089.92;129487;1292;22531;-80
2023/06/18 06:30:44;;;;;;;;;;;;;;;19.89;70.62;100094.09;129374;1292;24423;-79
2023/06/18 06:33:46;;;;;;;;;;;;;;;19.78;70.31;100091.41;129931;1292;22971;-80
2023/06/18 06:36:48;;;;;;;;;;;;;;;19.63;70.20;100095.11;129898;1295;22593;-80
2023/06/18 06:39:49;;;;;;;;;;;;;;;19.47;70.42;100094.67;129778;1301;22661;-78
2023/06/18 06:42:51;;;;;;;;;;;;;;;19.43;70.56;100089.80;129671;1285;25489;-82
2023/06/18 06:46:14;;;;;;;;;;;;;;;19.26;70.23;100091.16;129389;1295;25252;-79
2023/06/18 06:49:34;;;;;;;;;;;;;;;19.17;70.18;100089.77;130060;1295;22662;-80
2023/06/18 06:53:01;;;;;;;;;;;;;;;19.06;70.28;100096.14;129936;1293;23152;-81
2023/06/18 06:56:01;;;;;;;;;;;;;;;18.99;70.40;100096.22;129737;1295;23190;-79
2023/06/18 06:59:03;;;;;;;;;;;;;;;18.91;70.31;100106.30;129809;1292;22576;-80
2023/06/18 07:02:04;;;;;;;;;;;;;;;18.81;70.47;100109.23;129772;1298;22556;-79
2023/06/18 07:05:06;;;;;;;;;;;;;;;18.69;70.52;100106.39;129321;1301;24243;-79
2023/06/18 07:08:06;;;;;;;;;;;;;;;18.60;70.85;100108.23;129708;1292;22707;-80
2023/06/18 07:11:07;;;;;;;;;;;;;;;18.50;70.78;100110.00;129786;1295;24238;-82
2023/06/18 07:14:08;;;;;;;;;;;;;;;18.50;70.93;100108.08;129842;1296;25428;-80
2023/06/18 07:17:11;;;;;;;;;;;;;;;18.66;71.15;100110.89;129812;1294;22544;-83
2023/06/18 07:20:12;;;;;;;;;;;;;;;18.89;71.01;100114.70;129807;1293;22667;-80
2023/06/18 07:23:12;;;;;;;;;;;;;;;18.99;71.04;100113.20;130108;1292;22598;-81
2023/06/18 07:26:13;;;;;;;;;;;;;;;19.11;70.81;100108.58;129866;1292;24228;-80
2023/06/18 07:29:13;;;;;;;;;;;;;;;19.28;70.80;100105.77;130120;1301;23916;-80
2023/06/18 07:32:14;;;;;;;;;;;;;;;19.50;70.33;100103.30;130261;1292;22630;-85
2023/06/18 07:51:30;;;;;;;;;;;;;;;20.93;68.27;100107.73;128425;1310;25300;-82
2023/06/18 08:03:50;;;;;;;;;;;;;;;;;;;;;
2023/06/18 08:07:22;;;;;;;;;;;;;;;23.78;63.64;100101.32;127405;1318;24658;-82
2023/06/18 09:10:05;;;;;;;;;;;;;;;27.20;50.51;100076.35;126956;1313;22792;-83
2023/06/18 09:14:09;;;;;;;;;;;;;;;27.13;49.78;100069.88;128365;1302;25388;-83
2023/06/18 09:20:51;;;;;;;;;;;;;;;27.46;49.60;100062.69;129884;1301;22547;-80
2023/06/18 09:24:40;;;;;;;;;;;;;;;27.56;49.19;100062.36;129715;1295;22542;-79
2023/06/18 09:32:04;;;;;;;;;;;;;;;27.65;47.99;100054.98;130339;1295;22923;-82
2023/06/18 09:35:12;;;;;;;;;;;;;;;27.78;48.14;100057.33;130306;1295;24296;-81
2023/06/18 09:38:12;;;;;;;;;;;;;;;27.92;47.34;100053.33;130265;1297;22583;-82
2023/06/18 09:41:14;;;;;;;;;;;;;;;28.05;47.14;100048.65;129959;1293;26665;-83
2023/06/18 09:44:14;;;;;;;;;;;;;;;28.06;46.39;100053.54;129723;1295;22534;-85
2023/06/18 09:47:15;;;;;;;;;;;;;;;27.99;45.73;100050.66;130141;1295;24458;-83
2023/06/18 09:50:25;;;;;;;;;;;;;;;28.20;46.42;100052.91;130139;1295;24788;-84
2023/06/18 09:53:27;;;;;;;;;;;;;;;28.51;45.83;100046.86;130266;1295;22725;-84
2023/06/18 09:56:27;;;;;;;;;;;;;;;28.66;45.26;100041.42;129859;1295;24587;-82
2023/06/18 09:59:29;;;;;;;;;;;;;;;28.85;44.71;100041.98;129812;1297;23196;-83
2023/06/18 10:02:29;;;;;;;;;;;;;;;29.05;44.42;100036.91;130058;1295;23133;-83
2023/06/18 10:05:31;;;;;;;;;;;;;;;28.73;43.50;100041.50;130263;1297;22553;-84
2023/06/18 10:08:31;;;;;;;;;;;;;;;28.16;43.58;100039.77;130239;1292;22540;-82
2023/06/18 10:11:33;;;;;;;;;;;;;;;27.42;43.85;100037.46;130258;1295;22634;-85
2023/06/18 10:14:34;;;;;;;;;;;;;;;26.99;44.40;100041.81;130158;1293;22561;-85
2023/06/18 10:17:38;;;;;;;;;;;;;;;27.20;44.96;100035.48;130181;1292;25303;-84
2023/06/18 10:20:40;;;;;;;;;;;;;;;27.45;44.75;100034.52;130301;1291;22536;-83
2023/06/18 10:23:40;;;;;;;;;;;;;;;27.74;44.73;100030.76;130432;1293;22636;-82
2023/06/18 10:26:41;;;;;;;;;;;;;;;28.06;44.49;100027.60;130089;1295;22562;-84
2023/06/18 10:29:42;;;;;;;;;;;;;;;27.72;43.83;100030.54;130164;1295;24237;-86
2023/06/18 10:32:43;;;;;;;;;;;;;;;27.15;44.50;100036.69;129933;1299;22588;-85
2023/06/18 10:35:44;;;;;;;;;;;;;;;26.73;44.57;100037.26;130158;1292;22531;-85
2023/06/18 10:38:45;;;;;;;;;;;;;;;26.28;45.41;100037.02;130127;1294;25414;-85
2023/06/18 10:41:46;;;;;;;;;;;;;;;25.93;45.79;100037.73;130204;1296;25424;-84
2023/06/18 10:45:07;;;;;;;;;;;;;;;26.09;46.31;100036.42;130011;1295;22681;-84
2023/06/18 10:48:22;;;;;;;;;;;;;;;25.97;45.67;100030.61;130241;1293;24726;-85
2023/06/18 10:51:25;;;;;;;;;;;;;;;25.87;46.07;100029.73;130060;1299;22553;-84
2023/06/18 10:54:33;;;;;;;;;;;;;;;26.21;46.47;100027.55;130119;1292;25331;-83
2023/06/18 10:57:54;;;;;;;;;;;;;;;26.37;45.82;100025.98;130263;1292;22557;-84
2023/06/18 14:34:26;;;;;;;;;;;;;;;;;;;;;
2023/06/18 14:42:25;;;;;;;;;;;;;;;;;;;;;
2023/06/18 14:46:11;;;;;;;;;;;;;;;25.44;41.59;99959.98;129403;1298;24058;-86
2023/06/18 14:53:36;;;;;;;;;;;;;;;25.16;42.28;99954.53;129217;1303;22675;-82
2023/06/18 14:56:39;;;;;;;;;;;;;;;25.10;42.55;99962.52;129021;1303;24350;-83
2023/06/18 14:59:42;;;;;;;;;;;;;;;25.12;42.61;99958.18;129963;1294;22798;-83
2023/06/18 15:02:43;;;;;;;;;;;;;;;25.19;42.46;99957.63;130155;1289;25350;-84
2023/06/18 15:05:43;;;;;;;;;;;;;;;25.28;42.51;99954.95;130077;1289;24243;-83
2023/06/18 15:08:44;;;;;;;;;;;;;;;25.45;43.02;99957.48;130327;1294;26365;-83
2023/06/18 15:11:44;;;;;;;;;;;;;;;25.57;42.61;99956.84;130121;1294;22764;-83
2023/06/18 15:14:45;;;;;;;;;;;;;;;25.55;42.56;99956.89;130318;1295;22754;-84
2023/06/18 15:17:45;;;;;;;;;;;;;;;25.55;42.60;99954.94;130183;1295;22543;-83
2023/06/18 15:20:46;;;;;;;;;;;;;;;25.48;42.58;99948.30;130144;1290;22549;-84
2023/06/18 15:23:46;;;;;;;;;;;;;;;25.32;42.64;99951.04;130233;1289;26518;-82
2023/06/18 15:26:47;;;;;;;;;;;;;;;25.15;43.11;99951.85;130099;1288;25550;-85
2023/06/18 15:29:47;;;;;;;;;;;;;;;24.99;43.20;99959.98;130161;1289;22537;-82
2023/06/18 15:32:48;;;;;;;;;;;;;;;24.83;43.29;99956.05;130232;1292;22551;-82
2023/06/18 15:35:49;;;;;;;;;;;;;;;24.71;43.45;99954.61;130095;1292;25258;-83
2023/06/18 15:38:50;;;;;;;;;;;;;;;24.62;43.77;99960.75;130332;1294;24247;-82
2023/06/18 15:41:50;;;;;;;;;;;;;;;24.57;44.09;99962.18;130515;1290;22562;-84
2023/06/18 15:44:51;;;;;;;;;;;;;;;24.51;44.45;99963.67;130599;1289;22559;-86
2023/06/18 15:47:51;;;;;;;;;;;;;;;24.45;44.42;99968.95;130523;1289;23460;-84
2023/06/18 15:50:52;;;;;;;;;;;;;;;24.44;44.46;99965.30;130475;1295;22767;-81
2023/06/18 15:53:52;;;;;;;;;;;;;;;24.39;44.55;99967.95;130477;1298;25599;-83
2023/06/18 15:56:53;;;;;;;;;;;;;;;24.33;44.88;99964.23;130403;1295;22561;-84
2023/06/18 15:59:53;;;;;;;;;;;;;;;24.29;45.12;99961.66;130107;1289;23079;-83
2023/06/18 16:02:53;;;;;;;;;;;;;;;24.22;44.89;99961.08;130134;1295;22683;-84
2023/06/18 16:05:54;;;;;;;;;;;;;;;24.18;44.82;99962.56;130137;1295;25354;-85
2023/06/18 16:08:54;;;;;;;;;;;;;;;24.14;45.03;99967.09;130137;1294;24350;-85
2023/06/18 16:11:55;;;;;;;;;;;;;;;24.16;45.38;99968.18;130219;1298;24107;-87
2023/06/18 16:14:55;;;;;;;;;;;;;;;24.17;45.34;99972.36;130149;1294;22561;-83
2023/06/18 16:17:56;;;;;;;;;;;;;;;24.18;45.50;99974.85;130166;1289;22927;-81
2023/06/18 16:20:56;;;;;;;;;;;;;;;24.20;45.53;99976.02;130123;1295;25335;-86
2023/06/18 16:23:57;;;;;;;;;;;;;;;24.19;45.52;99980.13;130245;1298;22572;-83
2023/06/18 16:26:59;;;;;;;;;;;;;;;24.18;45.33;99980.49;130180;1292;22618;-84
2023/06/18 16:30:00;;;;;;;;;;;;;;;24.19;45.32;99981.64;130328;1298;24277;-84
2023/06/18 16:33:01;;;;;;;;;;;;;;;24.20;45.51;99984.96;130554;1297;22696;-82
2023/06/18 16:36:01;;;;;;;;;;;;;;;24.21;45.71;99985.13;130346;1289;25320;-83
2023/06/18 16:39:02;;;;;;;;;;;;;;;24.17;45.71;99984.45;130637;1292;22536;-82
2023/06/18 16:42:03;;;;;;;;;;;;;;;24.14;45.63;99988.65;130557;1298;22586;-80
2023/06/18 16:45:04;;;;;;;;;;;;;;;24.10;45.67;99989.33;130346;1289;23129;-81
2023/06/18 16:48:05;;;;;;;;;;;;;;;24.05;45.47;99989.94;130647;1295;23448;-83
2023/06/18 16:51:06;;;;;;;;;;;;;;;24.03;45.49;99993.61;130489;1292;22573;-83
2023/06/18 16:54:07;;;;;;;;;;;;;;;24.05;45.31;99991.40;130566;1288;25016;-85
2023/06/18 16:57:09;;;;;;;;;;;;;;;23.96;45.48;99998.32;130380;1298;22553;-84
2023/06/18 17:00:09;;;;;;;;;;;;;;;23.61;45.91;99995.59;130560;1297;24069;-85
2023/06/18 17:03:10;;;;;;;;;;;;;;;23.33;46.24;99989.17;130220;1301;22575;-83
2023/06/18 17:06:10;;;;;;;;;;;;;;;23.15;46.65;99990.98;130246;1293;22530;-84
2023/06/18 17:09:11;;;;;;;;;;;;;;;23.02;46.88;99993.30;130419;1292;24687;-83
2023/06/18 17:12:11;;;;;;;;;;;;;;;22.87;47.26;99995.52;130206;1295;25376;-84
2023/06/18 17:15:12;;;;;;;;;;;;;;;22.74;47.65;100001.20;130174;1289;22540;-85
2023/06/18 17:18:12;;;;;;;;;;;;;;;22.61;47.86;99995.61;130373;1295;22548;-83
2023/06/18 17:21:13;;;;;;;;;;;;;;;22.48;48.07;99997.42;130173;1288;22658;-82
2023/06/18 17:24:13;;;;;;;;;;;;;;;22.38;48.46;100001.21;130536;1293;22537;-83
2023/06/18 17:27:14;;;;;;;;;;;;;;;22.27;48.75;100001.31;130517;1298;22568;-86
2023/06/18 17:30:15;;;;;;;;;;;;;;;22.18;48.93;100003.23;130558;1290;25497;-83
2023/06/18 17:33:15;;;;;;;;;;;;;;;22.12;49.30;100004.06;130514;1289;24268;-82
2023/06/18 17:36:17;;;;;;;;;;;;;;;22.06;49.41;100009.98;130280;1289;23633;-82
2023/06/18 17:39:19;;;;;;;;;;;;;;;22.02;49.63;100013.48;130374;1295;25217;-81
2023/06/18 17:42:20;;;;;;;;;;;;;;;22.00;49.84;100010.69;130267;1298;25277;-83
2023/06/18 17:45:22;;;;;;;;;;;;;;;21.93;50.07;100011.83;130088;1289;145058;-84
2023/06/18 17:48:22;;;;;;;;;;;;;;;21.90;50.36;100016.30;130193;1298;23925;-84
2023/06/18 17:51:23;;;;;;;;;;;;;;;21.86;50.52;100016.73;130259;1298;24302;-79
2023/06/18 17:54:23;;;;;;;;;;;;;;;21.83;50.68;100015.10;130286;1291;22544;-85
2023/06/18 17:57:25;;;;;;;;;;;;;;;21.79;50.91;100023.89;130201;1289;24444;-81
2023/06/18 18:00:25;;;;;;;;;;;;;;;21.76;51.11;100024.74;130283;1295;22550;-85
2023/06/18 18:03:26;;;;;;;;;;;;;;;21.75;51.33;100026.52;130266;1289;22569;-83
2023/06/18 18:06:27;;;;;;;;;;;;;;;21.72;51.45;100027.86;130211;1289;25350;-85
2023/06/18 18:09:27;;;;;;;;;;;;;;;21.67;51.51;100031.06;130470;1289;23572;-87
2023/06/18 18:12:27;;;;;;;;;;;;;;;21.61;51.75;100030.85;130168;1290;24391;-84
2023/06/18 18:15:28;;;;;;;;;;;;;;;21.52;51.93;100026.68;130288;1290;24303;-85
2023/06/18 18:18:28;;;;;;;;;;;;;;;21.43;52.35;100026.67;130253;1289;22537;-81
2023/06/18 18:21:29;;;;;;;;;;;;;;;21.34;52.62;100035.59;130397;1289;22553;-84
2023/06/18 18:24:29;;;;;;;;;;;;;;;21.24;52.94;100034.36;130537;1295;22600;-83
2023/06/18 18:27:30;;;;;;;;;;;;;;;21.08;53.23;100035.27;130569;1289;22804;-81
2023/06/18 18:30:30;;;;;;;;;;;;;;;20.91;53.63;100034.04;130365;1299;22535;-80
2023/06/18 18:33:31;;;;;;;;;;;;;;;20.76;53.90;100037.88;130627;1288;25376;-83
2023/06/18 18:36:32;;;;;;;;;;;;;;;20.67;54.17;100042.73;130370;1289;22547;-83
2023/06/18 18:39:32;;;;;;;;;;;;;;;20.57;54.41;100046.46;130562;1289;23060;-82
2023/06/18 18:42:33;;;;;;;;;;;;;;;20.47;54.83;100046.36;130410;1289;24311;-84
2023/06/18 18:45:34;;;;;;;;;;;;;;;20.36;55.17;100047.22;130245;1288;22597;-83
2023/06/18 18:48:34;;;;;;;;;;;;;;;20.22;55.40;100047.90;130241;1289;25525;-84
2023/06/18 18:51:35;;;;;;;;;;;;;;;20.11;55.71;100049.56;130319;1288;24778;-82
2023/06/18 18:54:35;;;;;;;;;;;;;;;20.00;55.80;100050.80;130325;1289;24235;-84
2023/06/18 18:57:36;;;;;;;;;;;;;;;19.88;56.09;100052.22;130448;1291;25415;-84
2023/06/18 19:00:38;;;;;;;;;;;;;;;19.78;56.29;100056.84;130457;1289;22536;-86
2023/06/18 19:03:40;;;;;;;;;;;;;;;19.64;56.69;100059.30;130347;1288;24381;-83
2023/06/18 19:06:41;;;;;;;;;;;;;;;19.44;57.08;100062.40;130580;1291;22723;-84
2023/06/18 19:09:41;;;;;;;;;;;;;;;19.30;57.41;100059.74;130324;1288;22567;-84
2023/06/18 19:12:42;;;;;;;;;;;;;;;19.18;57.74;100063.61;130231;1290;24421;-85
2023/06/18 19:15:44;;;;;;;;;;;;;;;19.09;57.97;100066.61;130245;1289;22544;-85
2023/06/18 19:18:44;;;;;;;;;;;;;;;18.99;58.22;100073.75;130209;1288;24397;-87
2023/06/18 19:21:45;;;;;;;;;;;;;;;18.87;58.57;100078.05;130206;1290;22975;-84
2023/06/18 19:24:45;;;;;;;;;;;;;;;18.79;58.82;100082.75;130275;1289;23032;-82
2023/06/18 19:27:45;;;;;;;;;;;;;;;18.72;59.09;100084.03;130516;1298;22625;-84
2023/06/18 19:30:46;;;;;;;;;;;;;;;18.69;59.24;100086.29;130520;1294;24293;-86
2023/06/18 19:33:47;;;;;;;;;;;;;;;18.64;59.44;100091.92;130469;1289;23563;-85
2023/06/18 19:36:48;;;;;;;;;;;;;;;18.53;59.54;100095.39;130472;1288;22545;-82
2023/06/18 19:39:49;;;;;;;;;;;;;;;18.44;60.05;100096.75;130114;1290;22537;-83
2023/06/18 19:42:49;;;;;;;;;;;;;;;18.36;60.22;100103.80;130427;1295;22570;-84
2023/06/18 19:45:50;;;;;;;;;;;;;;;18.27;60.53;100108.44;130180;1289;22614;-84
2023/06/18 19:48:51;;;;;;;;;;;;;;;18.16;60.93;100104.94;130150;1294;24541;-81
2023/06/18 19:51:51;;;;;;;;;;;;;;;18.07;61.47;100112.05;130254;1289;22565;-83
2023/06/18 19:55:15;;;;;;;;;;;;;;;17.92;61.78;100113.38;130634;1293;22587;-85
2023/06/18 19:58:25;;;;;;;;;;;;;;;17.80;62.24;100110.95;130544;1299;24470;-86
2023/06/18 20:01:25;;;;;;;;;;;;;;;17.72;62.35;100110.39;130456;1296;22814;-87
2023/06/18 20:04:26;;;;;;;;;;;;;;;17.49;62.89;100105.41;130407;1298;24352;-87
2023/06/18 20:07:26;;;;;;;;;;;;;;;17.30;63.37;100114.39;130308;1295;22660;-84
2023/06/18 20:10:27;;;;;;;;;;;;;;;17.23;63.70;100116.14;130367;1295;22586;-86
2023/06/18 20:13:27;;;;;;;;;;;;;;;17.20;63.83;100117.18;130255;1294;22655;-85
2023/06/18 20:16:28;;;;;;;;;;;;;;;17.14;64.12;100122.02;130325;1295;22580;-84
2023/06/18 20:19:28;;;;;;;;;;;;;;;17.05;64.35;100121.24;130186;1294;24240;-87
2023/06/18 20:22:29;;;;;;;;;;;;;;;16.97;64.64;100123.33;130107;1292;24334;-89
2023/06/18 20:25:30;;;;;;;;;;;;;;;16.91;64.81;100126.17;130324;1291;26563;-86
2023/06/18 20:28:30;;;;;;;;;;;;;;;16.79;65.08;100125.23;130184;1298;22550;-86
2023/06/18 20:31:31;;;;;;;;;;;;;;;16.59;65.76;100124.59;130419;1289;25306;-83
2023/06/18 20:34:31;;;;;;;;;;;;;;;16.41;66.28;100125.16;130536;1298;22554;-83
2023/06/18 20:37:32;;;;;;;;;;;;;;;16.29;66.60;100122.67;130354;1293;23091;-87
2023/06/18 20:40:34;;;;;;;;;;;;;;;16.21;66.89;100123.08;130195;1295;23406;-85
2023/06/18 20:43:34;;;;;;;;;;;;;;;16.20;67.13;100121.55;130234;1295;22628;-84
2023/06/18 20:46:35;;;;;;;;;;;;;;;16.17;67.27;100117.21;130048;1297;27679;-86